Time;durP1;ratioP1;P1;durP2;ratioP2;P2;SDS_P1;SDS_P2;PMS_P1;PMS_P2;Temp;Humidity;BMP_temperature;BMP_pressure;BME280_temperature;BME280_humidity;BME280_pressure;Samples;Min_cycle;Max_cycle;Signal;HPM_P1;HPM_P2
2023/05/11 00:01:23;;;;;;;3.33;2.47;;;;;;;19.53;54.99;96561.13;10396335;28;20392;-55
2023/05/11 00:06:42;;;;;;;2.88;2.58;;;;;;;19.54;55.04;96554.59;10392691;28;20045;-55
2023/05/11 00:12:03;;;;;;;2.53;2.33;;;;;;;19.52;55.19;96552.25;10401181;28;20096;-55
2023/05/11 00:17:23;;;;;;;3.53;2.35;;;;;;;19.52;55.26;96549.53;10389367;28;20064;-55
2023/05/11 00:22:42;;;;;;;3.30;2.50;;;;;;;19.51;55.18;96550.66;10425347;28;20042;-55
2023/05/11 00:28:02;;;;;;;2.33;2.13;;;;;;;19.51;55.12;96552.56;10392119;28;20047;-55
2023/05/11 00:33:22;;;;;;;2.28;2.08;;;;;;;19.51;55.17;96552.56;10413896;28;20049;-55
2023/05/11 00:38:42;;;;;;;3.00;2.15;;;;;;;19.50;55.18;96553.66;10416159;28;20046;-55
2023/05/11 00:44:01;;;;;;;3.00;2.70;;;;;;;19.50;55.34;96551.78;10428369;28;20053;-55
2023/05/11 00:49:21;;;;;;;2.80;2.50;;;;;;;19.50;55.26;96553.66;10388618;28;20046;-55
2023/05/11 00:54:41;;;;;;;2.67;2.00;;;;;;;19.48;55.31;96545.91;10390986;28;20042;-55
2023/05/11 01:00:02;;;;;;;2.67;2.20;;;;;;;19.49;55.43;96557.50;10387860;28;20046;-55
2023/05/11 01:05:25;;;;;;;2.20;2.00;;;;;;;19.49;55.33;96554.81;10399658;28;20045;-55
2023/05/11 01:10:48;;;;;;;2.20;2.03;;;;;;;19.46;55.44;96556.22;10392849;28;20045;-55
2023/05/11 01:16:13;;;;;;;2.45;2.00;;;;;;;19.46;55.43;96545.44;10386085;28;20418;-55
2023/05/11 01:21:33;;;;;;;2.33;2.13;;;;;;;19.46;55.24;96550.06;10372804;28;20054;-55
2023/05/11 01:27:06;;;;;;;2.42;2.20;;;;;;;19.45;55.53;96551.97;10372398;28;20494;-55
2023/05/11 01:32:27;;;;;;;2.42;2.17;;;;;;;19.45;55.53;96557.38;10398851;28;20037;-55
2023/05/11 01:37:53;;;;;;;2.38;2.17;;;;;;;19.45;55.43;96557.38;10398174;28;20037;-55
2023/05/11 01:43:17;;;;;;;2.22;2.03;;;;;;;19.43;55.56;96559.63;10394356;28;20460;-55
2023/05/11 01:48:42;;;;;;;2.30;2.10;;;;;;;19.44;55.57;96557.69;10397376;28;20116;-55
2023/05/11 01:54:05;;;;;;;2.47;2.10;;;;;;;19.43;55.51;96566.94;10387966;28;20049;-55
2023/05/11 01:59:25;;;;;;;2.30;2.10;;;;;;;19.42;55.57;96571.53;10411768;28;20049;-55
2023/05/11 02:04:45;;;;;;;2.30;2.10;;;;;;;19.42;55.54;96570.75;10387842;28;20042;-55
2023/05/11 02:10:06;;;;;;;2.55;2.10;;;;;;;19.42;55.56;96574.22;10412983;28;20041;-55
2023/05/11 02:15:26;;;;;;;2.10;2.00;;;;;;;19.42;55.54;96570.75;10384538;28;20046;-55
2023/05/11 02:20:46;;;;;;;2.15;1.95;;;;;;;19.40;55.64;96573.75;10390881;28;20046;-55
2023/05/11 02:26:07;;;;;;;2.05;1.95;;;;;;;19.39;55.53;96577.59;10371363;28;20084;-55
2023/05/11 02:31:28;;;;;;;2.20;2.00;;;;;;;19.40;55.61;96570.28;10376680;28;20053;-55
2023/05/11 02:36:51;;;;;;;1.88;1.77;;;;;;;19.38;55.62;96567.91;10386917;28;20046;-55
2023/05/11 02:42:18;;;;;;;2.08;1.88;;;;;;;19.36;55.57;96570.91;10386235;28;20037;-55
2023/05/11 02:47:41;;;;;;;2.28;2.08;;;;;;;19.38;55.56;96580.63;10372716;28;20050;-55
2023/05/11 02:53:06;;;;;;;2.13;1.80;;;;;;;19.37;55.72;96574.44;10398052;28;20049;-55
2023/05/11 02:58:28;;;;;;;1.98;1.88;;;;;;;19.38;55.68;96576.00;10360390;28;20046;-55
2023/05/11 03:04:03;;;;;;;2.03;1.80;;;;;;;19.36;55.67;96567.44;10403846;28;20083;-55
2023/05/11 03:09:23;;;;;;;1.98;1.85;;;;;;;19.36;55.70;96567.44;10389721;28;20103;-55
2023/05/11 03:14:43;;;;;;;2.20;2.00;;;;;;;19.35;55.63;96572.06;10386598;28;20483;-55
2023/05/11 03:20:03;;;;;;;2.20;2.00;;;;;;;19.35;55.71;96576.69;10389474;28;20506;-55
2023/05/11 03:25:23;;;;;;;1.80;1.70;;;;;;;19.34;55.74;96581.25;10398465;28;20038;-55
2023/05/11 03:30:45;;;;;;;2.13;1.70;;;;;;;19.33;55.67;96585.09;10401171;28;20049;-55
2023/05/11 03:36:08;;;;;;;1.90;1.67;;;;;;;19.33;55.67;96595.91;10390201;28;20053;-55
2023/05/11 03:41:30;;;;;;;1.77;1.60;;;;;;;19.33;55.65;96585.09;10396081;28;20410;-55
2023/05/11 03:46:51;;;;;;;1.90;1.80;;;;;;;19.32;55.63;96582.72;10387379;28;20049;-55
2023/05/11 03:52:11;;;;;;;1.70;1.60;;;;;;;19.31;55.59;96591.97;10377148;28;20057;-55
2023/05/11 03:57:31;;;;;;;2.00;1.80;;;;;;;19.31;55.71;96584.63;10417022;28;20056;-55
2023/05/11 04:02:51;;;;;;;1.73;1.63;;;;;;;19.31;55.71;96594.66;10392809;28;20038;-55
2023/05/11 04:08:11;;;;;;;1.90;1.80;;;;;;;19.30;55.77;96591.16;10398727;28;20074;-55
2023/05/11 04:13:32;;;;;;;1.70;1.60;;;;;;;19.30;55.68;96595.75;10380259;28;20046;-55
2023/05/11 04:18:51;;;;;;;2.05;1.60;;;;;;;19.28;55.89;96593.38;10416612;28;20052;-55
2023/05/11 04:24:10;;;;;;;1.85;1.73;;;;;;;19.30;56.24;96595.75;10398601;28;20044;-54
2023/05/11 04:29:30;;;;;;;1.90;1.80;;;;;;;19.31;56.75;96597.34;10400548;28;20046;-54
2023/05/11 04:34:50;;;;;;;1.90;1.80;;;;;;;19.31;56.96;96598.16;10398672;28;20394;-55
2023/05/11 04:40:14;;;;;;;3.22;1.60;;;;;;;19.33;56.62;96593.19;10399039;28;20402;-51
2023/05/11 04:45:36;;;;;;;1.70;1.60;;;;;;;19.34;56.62;96602.09;10414300;28;20042;-48
2023/05/11 04:50:56;;;;;;;1.63;1.52;;;;;;;19.33;56.29;96601.31;10391975;28;20061;-48
2023/05/11 04:56:20;;;;;;;2.30;1.65;;;;;;;19.33;55.17;96593.19;10391438;28;20046;-47
2023/05/11 05:01:42;;;;;;;2.15;1.63;;;;;;;19.33;55.12;96595.13;10402137;28;20038;-46
2023/05/11 05:07:01;;;;;;;3.17;1.77;;;;;;;19.34;55.19;96607.50;10397169;28;20502;-47
2023/05/11 05:12:21;;;;;;;3.88;1.40;;;;;;;19.36;55.21;96605.25;10390476;28;20041;-47
2023/05/11 05:17:42;;;;;;;1.95;1.42;;;;;;;19.38;55.31;96611.13;10387073;28;20042;-46
2023/05/11 05:23:01;;;;;;;3.13;1.60;;;;;;;19.41;55.42;96618.59;10393270;28;20456;-47
2023/05/11 05:28:21;;;;;;;4.63;2.00;;;;;;;19.41;54.20;96623.97;10392038;28;20422;-48
2023/05/11 05:33:41;;;;;;;3.58;1.70;;;;;;;19.43;54.22;96629.06;10405519;28;20041;-46
2023/05/11 05:39:02;;;;;;;2.13;1.58;;;;;;;19.44;54.78;96623.31;10405080;28;20052;-47
2023/05/11 05:44:22;;;;;;;4.63;2.20;;;;;;;19.47;54.96;96640.81;10412371;28;20052;-46
2023/05/11 05:49:42;;;;;;;7.97;3.22;;;;;;;19.49;54.79;96638.56;10384107;28;20076;-48
2023/05/11 05:55:02;;;;;;;24.80;5.93;;;;;;;19.52;55.10;96640.59;10411366;28;20041;-46
2023/05/11 06:00:22;;;;;;;24.63;6.60;;;;;;;19.54;55.45;96647.28;10414154;28;20038;-46
2023/05/11 06:05:51;;;;;;;21.70;6.68;;;;;;;19.55;55.50;96656.94;10407574;28;20088;-46
2023/05/11 06:11:11;;;;;;;24.48;6.28;;;;;;;19.59;55.65;96659.78;10401357;28;20046;-47
2023/05/11 06:16:31;;;;;;;22.02;6.18;;;;;;;19.62;55.62;96664.56;10396534;28;20048;-47
2023/05/11 06:21:52;;;;;;;16.70;5.65;;;;;;;19.64;55.68;96666.91;10412805;28;20038;-46
2023/05/11 06:27:12;;;;;;;19.33;6.75;;;;;;;19.67;55.79;96671.66;10424794;28;20041;-46
2023/05/11 06:32:33;;;;;;;18.67;6.18;;;;;;;19.69;55.89;96672.91;10403489;28;20038;-45
2023/05/11 06:37:52;;;;;;;16.27;5.93;;;;;;;19.72;56.00;96674.22;10384710;28;20042;-46
2023/05/11 06:43:12;;;;;;;20.23;5.80;;;;;;;19.75;56.06;96687.84;10371635;28;20058;-45
2023/05/11 06:48:41;;;;;;;19.33;5.57;;;;;;;19.77;56.10;96674.00;10421150;28;20080;-46
2023/05/11 06:54:01;;;;;;;15.63;5.60;;;;;;;19.82;56.12;96681.16;10412887;28;20037;-46
2023/05/11 06:59:20;;;;;;;17.92;6.05;;;;;;;19.82;56.18;96679.22;10397028;28;20041;-45
2023/05/11 07:04:40;;;;;;;15.07;5.88;;;;;;;19.86;56.28;96673.97;10409243;28;20045;-47
2023/05/11 07:09:59;;;;;;;12.27;5.50;;;;;;;19.89;56.38;96682.19;10394653;28;20100;-46
2023/05/11 07:15:19;;;;;;;18.40;5.45;;;;;;;19.92;56.20;96680.75;10411752;28;20054;-47
2023/05/11 07:20:39;;;;;;;19.10;5.80;;;;;;;19.94;56.24;96684.72;10379455;28;20049;-48
2023/05/11 07:25:58;;;;;;;17.25;5.40;;;;;;;19.97;56.26;96675.13;10414462;28;20053;-47
2023/05/11 07:31:18;;;;;;;12.20;5.07;;;;;;;19.98;56.21;96684.84;10402723;28;20064;-46
2023/05/11 07:36:37;;;;;;;13.00;4.82;;;;;;;20.01;56.13;96688.78;10409575;28;20442;-46
2023/05/11 07:41:57;;;;;;;14.48;5.45;;;;;;;20.03;56.12;96681.13;10404588;28;20042;-46
2023/05/11 07:47:19;;;;;;;13.43;5.30;;;;;;;20.05;56.10;96689.72;10413309;28;20096;-46
2023/05/11 07:52:39;;;;;;;12.35;5.05;;;;;;;20.08;55.90;96678.25;10431359;28;20045;-46
2023/05/11 07:57:58;;;;;;;12.27;4.72;;;;;;;20.08;56.01;96679.03;10401178;28;20453;-45
2023/05/11 08:03:17;;;;;;;9.00;4.30;;;;;;;20.10;55.92;96682.19;10412271;28;20099;-45
2023/05/11 08:08:37;;;;;;;12.32;4.65;;;;;;;20.13;55.90;96683.44;10405418;28;20050;-49
2023/05/11 08:13:57;;;;;;;9.35;4.18;;;;;;;20.15;55.84;96681.22;10430319;28;20044;-46
2023/05/11 08:19:16;;;;;;;9.95;4.30;;;;;;;20.18;55.84;96679.75;10417391;28;20493;-46
2023/05/11 08:24:36;;;;;;;10.38;4.15;;;;;;;20.20;55.92;96685.63;10429958;28;20037;-46
2023/05/11 08:29:55;;;;;;;11.00;4.72;;;;;;;20.21;55.79;96693.44;10398324;28;20049;-46
2023/05/11 08:35:14;;;;;;;9.77;4.40;;;;;;;20.21;55.93;96682.59;10396382;28;20092;-46
2023/05/11 08:40:35;;;;;;;9.18;4.45;;;;;;;20.23;55.97;96683.06;10418847;28;20050;-46
2023/05/11 08:45:56;;;;;;;9.30;4.13;;;;;;;20.23;55.93;96677.66;10397285;28;20101;-45
2023/05/11 08:51:16;;;;;;;12.45;3.83;;;;;;;20.24;55.81;96684.63;10416975;28;20061;-48
2023/05/11 08:56:36;;;;;;;8.02;3.75;;;;;;;20.25;55.89;96678.13;10415862;28;20095;-44
2023/05/11 09:01:56;;;;;;;8.57;3.95;;;;;;;20.27;55.91;96680.50;10427991;28;20037;-46
2023/05/11 09:07:18;;;;;;;10.13;3.90;;;;;;;20.28;55.77;96679.34;10428320;28;20391;-45
2023/05/11 09:12:38;;;;;;;9.77;4.43;;;;;;;20.29;55.73;96689.84;10415293;28;20076;-45
2023/05/11 09:17:58;;;;;;;9.23;3.63;;;;;;;20.31;55.82;96681.41;10403401;28;20504;-47
2023/05/11 09:23:23;;;;;;;8.45;3.47;;;;;;;20.32;55.68;96685.69;10413073;28;20037;-47
2023/05/11 09:28:51;;;;;;;6.35;3.50;;;;;;;20.34;55.55;96676.09;10411380;28;20042;-47
2023/05/11 09:34:22;;;;;;;8.88;3.63;;;;;;;20.34;55.54;96673.41;10416664;28;20049;-45
2023/05/11 09:39:42;;;;;;;5.72;3.15;;;;;;;20.35;55.57;96683.09;10408835;28;20460;-45
2023/05/11 09:45:01;;;;;;;8.20;3.30;;;;;;;20.36;55.43;96689.31;10417899;28;20041;-46
2023/05/11 09:50:21;;;;;;;6.28;3.63;;;;;;;20.36;55.53;96683.88;10386688;28;20058;-46
2023/05/11 09:55:51;;;;;;;7.93;3.33;;;;;;;20.37;55.50;96679.28;10401303;28;20041;-46
2023/05/11 10:01:11;;;;;;;6.50;2.72;;;;;;;20.38;55.51;96672.75;10412048;28;20045;-46
2023/05/11 10:06:53;;;;;;;5.70;3.13;;;;;;;20.37;55.57;96674.66;10392095;28;20449;-48
2023/05/11 10:12:13;;;;;;;5.07;2.75;;;;;;;20.38;55.50;96678.16;10397523;28;20053;-48
2023/05/11 10:17:34;;;;;;;5.50;3.25;;;;;;;20.38;55.41;96681.66;10397022;28;20119;-47
2023/05/11 10:22:54;;;;;;;5.53;3.08;;;;;;;20.39;55.37;96674.34;10394306;28;20374;-46
2023/05/11 10:28:14;;;;;;;6.47;3.15;;;;;;;20.38;55.40;96668.13;10426270;28;20053;-46
2023/05/11 10:33:34;;;;;;;7.32;3.58;;;;;;;20.39;55.31;96672.41;10407196;28;20513;-46
2023/05/11 10:38:53;;;;;;;6.28;3.20;;;;;;;20.39;55.35;96671.63;10402434;28;20041;-45
2023/05/11 10:44:26;;;;;;;6.07;3.13;;;;;;;20.39;55.32;96669.72;10434031;28;20092;-46
2023/05/11 10:50:12;;;;;;;5.20;2.83;;;;;;;20.39;55.38;96666.22;10405644;28;20521;-46
2023/05/11 10:55:37;;;;;;;4.93;2.88;;;;;;;20.39;55.12;96650.78;10422003;28;20486;-48
2023/05/11 11:00:57;;;;;;;4.85;2.78;;;;;;;20.39;55.26;96664.31;10424474;28;20092;-47
2023/05/11 11:06:22;;;;;;;5.53;2.67;;;;;;;20.40;55.15;96656.97;10404053;28;20054;-46
2023/05/11 11:11:46;;;;;;;4.32;2.50;;;;;;;20.40;55.18;96681.31;10399530;28;20049;-46
2023/05/11 11:17:18;;;;;;;5.22;2.83;;;;;;;20.40;55.18;96667.78;10411432;28;20042;-46
2023/05/11 11:22:40;;;;;;;4.97;2.72;;;;;;;20.40;55.02;96670.50;10381932;28;20463;-49
2023/05/11 11:27:59;;;;;;;2.67;1.50;;;;;;;20.28;42.30;96665.81;10392156;28;20046;-50
2023/05/11 11:33:19;;;;;;;3.85;2.08;;;;;;;20.27;47.54;96672.38;10395019;28;20441;-46
2023/05/11 11:38:57;;;;;;;2.55;1.90;;;;;;;20.28;48.24;96680.13;10397605;28;20046;-48
2023/05/11 11:44:21;;;;;;;3.60;2.20;;;;;;;20.30;48.79;96669.78;10430248;28;20494;-46
2023/05/11 11:49:47;;;;;;;3.80;2.03;;;;;;;20.31;49.04;96681.41;10394683;28;20058;-45
2023/05/11 11:55:07;;;;;;;2.20;1.92;;;;;;;20.32;49.12;96675.63;10391256;28;20046;-48
2023/05/11 12:00:26;;;;;;;3.25;2.10;;;;;;;20.32;48.89;96664.81;10398109;28;20049;-47
2023/05/11 12:05:45;;;;;;;2.72;1.90;;;;;;;20.33;48.82;96681.88;10393566;28;20445;-48
2023/05/11 12:11:06;;;;;;;3.70;1.80;;;;;;;20.33;48.99;96677.25;10390656;28;20458;-46
2023/05/11 12:16:27;;;;;;;3.63;1.92;;;;;;;20.32;48.95;96683.75;10406458;28;20053;-48
2023/05/11 12:21:46;;;;;;;2.53;1.75;;;;;;;20.31;48.73;96682.19;10390069;28;20045;-48
2023/05/11 12:27:06;;;;;;;3.67;2.15;;;;;;;20.31;47.94;96676.78;10407804;28;20053;-46
2023/05/11 12:32:29;;;;;;;3.25;2.08;;;;;;;20.29;48.19;96680.94;10403441;28;20052;-49
2023/05/11 12:37:50;;;;;;;3.95;2.45;;;;;;;20.29;48.14;96673.63;10397827;28;20414;-47
2023/05/11 12:43:15;;;;;;;4.60;2.25;;;;;;;20.26;47.72;96674.25;10406650;28;20124;-46
2023/05/11 12:48:35;;;;;;;4.28;2.20;;;;;;;20.26;47.22;96668.84;10396894;28;20061;-47
2023/05/11 12:53:55;;;;;;;3.72;1.80;;;;;;;20.25;47.34;96672.69;10392134;28;20506;-47
2023/05/11 12:59:23;;;;;;;3.75;2.10;;;;;;;20.25;46.70;96672.69;10409756;28;20037;-50
2023/05/11 13:04:43;;;;;;;;;;;;;;;20.25;46.56;96675.41;10428842;28;20048;-48
2023/05/11 13:10:04;;;;;;;3.28;1.80;;;;;;;20.25;46.20;96661.09;10413822;28;19928;-45
2023/05/11 13:15:24;;;;;;;2.78;2.20;;;;;;;20.24;46.59;96651.38;10427862;28;20490;-45
2023/05/11 13:20:45;;;;;;;4.90;1.98;;;;;;;20.23;46.15;96647.09;10423874;28;20044;-45
2023/05/11 13:26:04;;;;;;;2.92;1.80;;;;;;;20.24;46.30;96645.97;10387442;28;20042;-47
2023/05/11 13:31:24;;;;;;;2.05;1.67;;;;;;;20.23;46.33;96658.72;10423236;28;20057;-46
2023/05/11 13:36:44;;;;;;;2.85;2.08;;;;;;;20.21;45.85;96649.34;10423672;28;20088;-46
2023/05/11 13:42:03;;;;;;;3.38;1.85;;;;;;;20.20;45.72;96664.00;10407717;28;20084;-48
2023/05/11 13:47:23;;;;;;;3.17;1.80;;;;;;;20.21;45.65;96662.84;10404897;28;20453;-47
2023/05/11 13:52:43;;;;;;;3.38;1.80;;;;;;;20.17;42.29;96662.75;10409243;28;20044;-49
2023/05/11 13:58:02;;;;;;;3.42;1.85;;;;;;;20.09;39.70;96641.97;10426426;28;20048;-47
2023/05/11 14:03:22;;;;;;;3.35;1.70;;;;;;;20.02;39.35;96647.13;10425225;28;20046;-49
2023/05/11 14:08:41;;;;;;;3.15;1.85;;;;;;;20.00;39.41;96652.06;10398759;28;20076;-45
2023/05/11 14:14:01;;;;;;;4.15;1.70;;;;;;;19.97;39.20;96655.44;10419560;28;20164;-46
2023/05/11 14:19:20;;;;;;;4.65;1.85;;;;;;;19.92;38.32;96654.50;10422247;28;20057;-46
2023/05/11 14:24:39;;;;;;;2.53;1.65;;;;;;;19.92;39.41;96643.69;10405115;28;20065;-46
2023/05/11 14:29:59;;;;;;;9.32;2.15;;;;;;;19.93;40.17;96650.69;10426108;28;20428;-50
2023/05/11 14:35:20;;;;;;;6.00;1.90;;;;;;;19.88;39.89;96647.41;10426261;28;20050;-48
2023/05/11 14:40:39;;;;;;;4.10;2.00;;;;;;;19.78;38.50;96650.47;10399968;28;20095;-47
2023/05/11 14:45:59;;;;;;;3.75;1.90;;;;;;;19.70;38.86;96647.47;10419446;28;20046;-45
2023/05/11 14:51:18;;;;;;;10.23;2.67;;;;;;;19.81;40.29;96649.81;10394340;28;20509;-46
2023/05/11 14:56:37;;;;;;;4.60;2.10;;;;;;;19.86;40.62;96660.44;10387340;28;20038;-45
2023/05/11 15:01:56;;;;;;;4.95;2.20;;;;;;;19.88;40.52;96650.09;10404498;28;20490;-46
2023/05/11 15:07:16;;;;;;;2.72;1.75;;;;;;;19.87;40.58;96646.59;10404130;28;20058;-46
2023/05/11 15:12:35;;;;;;;8.27;2.40;;;;;;;19.90;40.61;96650.56;10372116;28;20058;-46
2023/05/11 15:17:55;;;;;;;3.85;2.10;;;;;;;19.89;42.07;96649.75;10389407;28;20042;-46
2023/05/11 15:23:15;;;;;;;2.42;2.00;;;;;;;19.90;42.91;96662.16;10398319;28;20042;-47
2023/05/11 15:28:35;;;;;;;2.65;2.05;;;;;;;19.90;43.54;96664.06;10405342;28;20061;-46
2023/05/11 15:33:54;;;;;;;4.85;1.70;;;;;;;19.90;43.91;96656.75;10406257;28;20049;-45
2023/05/11 15:39:15;;;;;;;3.65;1.90;;;;;;;19.91;43.99;96665.66;10403060;28;20544;-46
2023/05/11 15:44:35;;;;;;;4.20;1.92;;;;;;;19.90;43.83;96662.16;10408311;28;20048;-46
2023/05/11 15:49:55;;;;;;;3.40;2.00;;;;;;;19.92;43.16;96664.53;10387457;28;20061;-45
2023/05/11 15:55:15;;;;;;;1.95;1.73;;;;;;;19.93;43.44;96671.50;10404966;28;20053;-47
2023/05/11 16:00:34;;;;;;;5.45;1.90;;;;;;;19.93;43.82;96672.31;10430007;28;21126;-46
2023/05/11 16:05:54;;;;;;;2.95;2.10;;;;;;;19.93;43.49;96675.03;10417466;28;20057;-46
2023/05/11 16:11:13;;;;;;;3.35;2.25;;;;;;;19.94;43.89;96673.88;10430384;28;20046;-48
2023/05/11 16:16:33;;;;;;;2.00;1.80;;;;;;;19.94;44.11;96679.28;10424658;28;20153;-47
2023/05/11 16:21:52;;;;;;;4.95;2.15;;;;;;;19.95;44.52;96674.69;10379972;28;20057;-47
2023/05/11 16:27:11;;;;;;;4.30;2.65;;;;;;;19.98;45.69;96681.34;10389868;28;20517;-47
2023/05/11 16:32:31;;;;;;;4.60;2.60;;;;;;;19.98;46.20;96678.66;10389397;28;20072;-45
2023/05/11 16:37:50;;;;;;;4.18;2.50;;;;;;;20.00;46.82;96681.81;10403082;28;20041;-46
2023/05/11 16:43:10;;;;;;;2.63;2.17;;;;;;;19.99;46.65;96677.50;10400089;28;20418;-47
2023/05/11 16:48:29;;;;;;;2.05;1.90;;;;;;;19.99;46.45;96675.59;10426621;28;20069;-48
2023/05/11 16:53:49;;;;;;;3.92;2.10;;;;;;;20.01;46.12;96667.16;10399720;28;20514;-48
2023/05/11 16:59:09;;;;;;;2.88;1.80;;;;;;;20.01;46.08;96673.34;10396691;28;20490;-48
2023/05/11 17:04:29;;;;;;;2.58;1.70;;;;;;;20.02;45.89;96682.28;10428469;28;20049;-47
2023/05/11 17:09:51;;;;;;;2.30;1.90;;;;;;;20.03;46.21;96683.84;10428563;28;20448;-46
2023/05/11 17:15:10;;;;;;;2.67;1.80;;;;;;;20.04;46.30;96683.53;10410528;28;20517;-46
2023/05/11 17:20:30;;;;;;;3.53;1.80;;;;;;;20.03;46.43;96681.97;10388003;28;20510;-46
2023/05/11 17:25:50;;;;;;;2.85;1.95;;;;;;;20.04;46.44;96677.34;10426782;28;20049;-49
2023/05/11 17:31:12;;;;;;;2.35;1.98;;;;;;;20.05;46.56;96684.31;10388232;28;20092;-49
2023/05/11 17:36:32;;;;;;;4.28;1.85;;;;;;;20.05;46.71;96687.81;10390324;28;20494;-47
2023/05/11 17:41:52;;;;;;;2.63;1.70;;;;;;;20.04;46.72;96688.94;10397498;28;20486;-50
2023/05/11 17:47:11;;;;;;;3.35;1.92;;;;;;;20.04;46.92;96691.63;10389925;28;20053;-49
2023/05/11 17:52:31;;;;;;;2.60;1.95;;;;;;;20.06;47.38;96700.22;10416064;28;20041;-50
2023/05/11 17:57:51;;;;;;;2.90;1.80;;;;;;;20.05;47.64;96695.94;10410906;28;20064;-47
2023/05/11 18:03:10;;;;;;;4.10;2.03;;;;;;;20.05;47.74;96701.34;10415545;28;20049;-49
2023/05/11 18:08:31;;;;;;;2.03;1.60;;;;;;;20.06;48.06;96702.13;10402285;28;20046;-50
2023/05/11 18:13:50;;;;;;;4.15;1.95;;;;;;;20.06;48.25;96705.63;10386228;28;20053;-49
2023/05/11 18:19:10;;;;;;;3.00;1.95;;;;;;;20.06;48.53;96702.13;10412835;28;20052;-54
2023/05/11 18:24:30;;;;;;;5.60;1.92;;;;;;;20.06;48.59;96699.44;10402309;28;20053;-55
2023/05/11 18:29:50;;;;;;;3.15;1.90;;;;;;;20.07;48.72;96709.09;10421583;28;20053;-56
2023/05/11 18:35:10;;;;;;;2.85;1.83;;;;;;;20.04;46.30;96710.56;10385910;28;20042;-55
2023/05/11 18:40:29;;;;;;;3.03;2.10;;;;;;;19.94;44.43;96717.16;10388675;28;20370;-47
2023/05/11 18:45:49;;;;;;;3.63;1.95;;;;;;;19.94;45.84;96719.06;10388456;28;20045;-47
2023/05/11 18:51:09;;;;;;;2.72;1.67;;;;;;;19.97;46.46;96720.31;10403439;28;20057;-47
2023/05/11 18:56:29;;;;;;;2.63;1.95;;;;;;;19.97;46.97;96725.72;10433413;28;20038;-46
2023/05/11 19:01:48;;;;;;;3.42;1.98;;;;;;;19.98;47.36;96733.50;10432500;28;20409;-47
2023/05/11 19:07:08;;;;;;;2.63;1.70;;;;;;;19.98;47.51;96732.72;10417227;28;20504;-49
2023/05/11 19:12:28;;;;;;;8.50;1.88;;;;;;;19.98;47.70;96740.84;10431123;28;20046;-47
2023/05/11 19:17:47;;;;;;;2.90;1.52;;;;;;;19.99;47.98;96737.00;10416500;28;20041;-49
2023/05/11 19:23:07;;;;;;;2.97;1.88;;;;;;;19.99;48.33;96745.91;10409547;28;20053;-47
2023/05/11 19:28:26;;;;;;;2.35;1.60;;;;;;;20.00;48.59;96749.41;10392220;28;20057;-47
2023/05/11 19:33:46;;;;;;;3.25;1.90;;;;;;;19.99;48.76;96755.94;10421633;28;20033;-48
2023/05/11 19:39:06;;;;;;;2.90;2.05;;;;;;;19.99;48.92;96755.94;10425354;28;20046;-47
2023/05/11 19:44:27;;;;;;;4.50;1.88;;;;;;;19.98;49.07;96760.56;10413652;28;20045;-48
2023/05/11 19:49:47;;;;;;;2.38;1.48;;;;;;;19.99;48.97;96762.13;10412732;28;20064;-48
2023/05/11 19:55:06;;;;;;;2.30;1.88;;;;;;;19.98;48.91;96754.38;10412169;28;20060;-49
2023/05/11 20:00:26;;;;;;;2.50;1.58;;;;;;;19.97;48.94;96761.66;10422782;28;20040;-48
2023/05/11 20:05:46;;;;;;;2.63;1.80;;;;;;;19.97;48.95;96758.97;10401779;28;20084;-47
2023/05/11 20:11:06;;;;;;;2.17;1.80;;;;;;;19.96;48.98;96754.69;10427320;28;20072;-45
2023/05/11 20:16:27;;;;;;;2.22;1.83;;;;;;;19.95;49.08;96756.59;10412731;28;20045;-44
2023/05/11 20:21:46;;;;;;;2.28;1.70;;;;;;;19.96;49.09;96757.38;10395925;28;20092;-49
2023/05/11 20:27:08;;;;;;;3.60;1.70;;;;;;;19.95;49.08;96751.19;10390055;28;20037;-49
2023/05/11 20:32:27;;;;;;;2.38;1.77;;;;;;;19.94;49.23;96752.31;10413437;28;20042;-47
2023/05/11 20:37:47;;;;;;;2.47;1.85;;;;;;;19.93;49.16;96750.72;10429349;28;20099;-49
2023/05/11 20:43:07;;;;;;;3.00;1.60;;;;;;;19.94;49.23;96748.81;10429147;28;20041;-46
2023/05/11 20:48:26;;;;;;;2.13;1.83;;;;;;;19.92;49.41;96751.06;10416478;28;20514;-47
2023/05/11 20:53:46;;;;;;;3.95;2.15;;;;;;;19.91;49.55;96747.53;10392054;28;20497;-45
2023/05/11 20:59:06;;;;;;;1.70;1.60;;;;;;;19.90;49.43;96740.56;10414498;28;20440;-47
2023/05/11 21:04:26;;;;;;;1.67;1.58;;;;;;;19.92;49.44;96740.25;10428251;28;20045;-49
2023/05/11 21:09:46;;;;;;;2.55;1.80;;;;;;;19.91;49.53;96733.22;10428584;28;20060;-48
2023/05/11 21:15:06;;;;;;;2.85;1.80;;;;;;;19.89;49.68;96730.84;10414929;28;20037;-49
2023/05/11 21:20:25;;;;;;;1.80;1.67;;;;;;;19.89;49.66;96730.06;10402488;28;20491;-48
2023/05/11 21:25:51;;;;;;;2.20;1.92;;;;;;;19.89;49.70;96733.56;10411450;28;20409;-49
2023/05/11 21:31:10;;;;;;;3.58;1.73;;;;;;;19.87;49.79;96727.69;10393080;28;20053;-49
2023/05/11 21:36:30;;;;;;;2.58;1.60;;;;;;;19.87;49.81;96733.09;10427554;28;20413;-47
2023/05/11 21:41:49;;;;;;;2.00;1.52;;;;;;;19.88;49.89;96728.50;10398241;28;20057;-48
2023/05/11 21:47:09;;;;;;;2.25;1.52;;;;;;;19.86;49.87;96736.94;10385298;28;20089;-48
2023/05/11 21:52:29;;;;;;;3.03;1.60;;;;;;;19.85;49.83;96740.75;10414041;28;20120;-49
2023/05/11 21:57:49;;;;;;;1.85;1.65;;;;;;;19.84;49.88;96733.75;10417807;28;20050;-47
2023/05/11 22:03:09;;;;;;;1.50;1.40;;;;;;;19.85;49.88;96737.25;10425479;28;20484;-48
2023/05/11 22:08:29;;;;;;;2.13;1.80;;;;;;;19.84;49.94;96749.19;10426518;28;20053;-48
2023/05/11 22:13:48;;;;;;;1.63;1.52;;;;;;;19.82;49.97;96741.41;10397100;28;20037;-46
2023/05/11 22:19:08;;;;;;;2.05;1.70;;;;;;;19.82;50.03;96738.72;10410849;28;20527;-48
2023/05/11 22:24:28;;;;;;;2.40;1.70;;;;;;;19.81;49.99;96745.22;10384335;28;20115;-47
2023/05/11 22:29:48;;;;;;;2.15;1.73;;;;;;;19.81;49.98;96745.22;10429823;28;20495;-48
2023/05/11 22:35:08;;;;;;;1.95;1.55;;;;;;;19.80;50.03;96740.13;10394449;28;20402;-48
2023/05/11 22:40:27;;;;;;;1.60;1.40;;;;;;;19.79;50.05;96738.56;10397047;28;20038;-47
2023/05/11 22:45:47;;;;;;;2.85;1.55;;;;;;;19.78;50.03;96748.59;10405199;28;20046;-47
2023/05/11 22:51:07;;;;;;;1.80;1.55;;;;;;;19.78;50.03;96740.47;10386641;28;20062;-46
2023/05/11 22:56:27;;;;;;;2.33;1.50;;;;;;;19.77;50.07;96746.22;10393567;28;20049;-46
2023/05/11 23:01:46;;;;;;;1.70;1.60;;;;;;;19.77;50.06;96748.91;10414130;28;20079;-49
2023/05/11 23:07:06;;;;;;;1.60;1.40;;;;;;;19.75;50.07;96747.31;10432929;28;20044;-46
2023/05/11 23:12:26;;;;;;;1.63;1.50;;;;;;;19.75;50.08;96736.50;10419997;28;20056;-49
2023/05/11 23:17:46;;;;;;;1.75;1.50;;;;;;;19.75;50.09;96743.81;10432909;28;20033;-47
2023/05/11 23:23:05;;;;;;;1.80;1.35;;;;;;;19.75;50.08;96743.81;10432343;28;20037;-48
2023/05/11 23:28:25;;;;;;;1.48;1.35;;;;;;;19.73;50.16;96740.66;10415060;28;20052;-48
2023/05/11 23:33:45;;;;;;;1.90;1.45;;;;;;;19.73;50.10;96737.94;10407395;28;20045;-48
2023/05/11 23:39:04;;;;;;;2.15;1.30;;;;;;;19.72;50.08;96737.16;10411467;28;20054;-49
2023/05/11 23:44:24;;;;;;;1.60;1.45;;;;;;;19.72;50.15;96739.09;10415278;28;20421;-45
2023/05/11 23:49:43;;;;;;;2.47;1.40;;;;;;;19.71;50.09;96735.56;10405467;28;20100;-47
2023/05/11 23:55:05;;;;;;;1.90;1.45;;;;;;;19.70;50.07;96728.56;10402760;28;20080;-50
